Cairns AAF (Fort Rucker) Air Field
KOZR : now visible

Airfield :











YOU CAN JOIN US ON...

 
LOGIN :

Register | Disclaimer

   EN    FR    IT 

 









Legend :    VFR   Marginal VFR   IFR   Intensive IFR   Very Intensive IFR
Visi :
Ceiling :
>= 8 km
>= 3000ft
5 to 8 km
1000 to 3000 ft
1500m to 5 km
500 to 1000 ft
800 to 1500m
200 to 500 ft
< 800m
< 200 ft
Symbols :   Thunderstorms  Fog  Heavy snow  Heavy precipitations  Wind > 20 kt






- Airport Elevation : 301 ft


KOZR - Cairns AAF (Fort Rucker) Air Field

CURRENT METAR :
  • 291727Z AUTO 19004KT 10SM FEW160 FEW180 31/20 A3000 RMK AO2 SLP158

EXPIRED METARs :
  • 291656Z AUTO 21007KT 10SM CLR 30/19 A3002 RMK AO2 SLP165 T03040194
  • 291556Z AUTO 19005KT 10SM BKN035 OVC045 29/20 A3004 RMK AO2 SLP172 T02870199
  • 291456Z AUTO 19006KT 10SM CLR 29/20 A3004 RMK AO2 SLP172 T02850202 50002 $

TAF TAF KOZR
Valid from the 29 at 16:00 until the 30 at 22:00 UTC


291600Z 2916/3022 20006KT 9999 BKN020 OVC040 QNH2999INS
TEMPO 2917/3002 VRB15G25KT 8000 -TSRA BKN016CB OVC023
BECMG 3005/3006 17006KT 3200 BR OVC005 QNH3000INS
BECMG 3008/3009 24006KT 0800 FG OVC001 QNH3003INS
BECMG 3012/3013 VRB06KT 4800 BR SCT016 QNH3006INS
BECMG 3017/3018 VRB06KT 8000 -SHRA SCT045 SCT080 QNH2998INS
TEMPO 3017/3022 VRB25G35KT 8000 -TSRA SCT040CB SCT060 OVC090 TX31/2921Z TN20/3011Z
KZJX FIR / North America



MET'MAP, your aeronautical weather chart ! - Copyright ORBIFLY December 2007 - Disclaimer

ORBIFLY MET'MAP TEAM :

Programming & Development : Alexandra Zaïnal
Concept & original design : Baudouin d'Aumeries
Assistance for programming : Marc-Olivier Méhu
Technical & hardware support : Manuel Goepfert

Contact : metmap@orbifly.com




SOURCES & CREDITS :

   NOAA       Earth
Advisory